Time;durP1;ratioP1;P1;durP2;ratioP2;P2;SDS_P1;SDS_P2;PMS_P1;PMS_P2;Temp;Humidity;BMP_temperature;BMP_pressure;BME280_temperature;BME280_humidity;BME280_pressure;Samples;Min_cycle;Max_cycle;Signal;HPM_P1;HPM_P2
2020/12/16 00:03:49;;;;;;;29.80;13.77;;;;;;;2.42;51.53;99645.31;10505973;28;20137;-51
2020/12/16 00:08:52;;;;;;;33.75;14.23;;;;;;;2.42;51.99;99645.31;10505315;28;20434;-51
2020/12/16 00:13:53;;;;;;;34.03;12.30;;;;;;;2.37;51.83;99668.06;10504757;28;20072;-50
2020/12/16 00:18:55;;;;;;;28.35;13.52;;;;;;;2.28;51.65;99664.19;10505900;28;20044;-51
2020/12/16 00:23:57;;;;;;;34.95;13.65;;;;;;;2.18;52.14;99681.97;10506015;28;20097;-52
2020/12/16 00:29:00;;;;;;;34.83;14.15;;;;;;;2.07;52.03;99660.94;10510756;28;20052;-52
2020/12/16 00:34:01;;;;;;;33.28;14.75;;;;;;;1.98;51.86;99666.59;10505457;28;20045;-51
2020/12/16 00:39:04;;;;;;;36.78;14.55;;;;;;;1.95;52.13;99674.53;10505057;28;20044;-51
2020/12/16 00:44:07;;;;;;;30.88;13.35;;;;;;;1.94;52.75;99670.25;10503697;28;20054;-50
2020/12/16 00:49:09;;;;;;;33.80;12.67;;;;;;;1.92;52.48;99679.88;10493705;28;20048;-50
2020/12/16 00:54:12;;;;;;;30.85;12.13;;;;;;;1.91;52.79;99681.63;10502588;28;20087;-51
2020/12/16 00:59:14;;;;;;;34.17;13.32;;;;;;;1.90;52.55;99679.94;10503652;28;20478;-51
2020/12/16 01:04:17;;;;;;;35.03;12.05;;;;;;;1.81;52.72;99683.81;10503814;28;20433;-51
2020/12/16 01:09:20;;;;;;;33.58;13.60;;;;;;;1.82;52.94;99676.91;10504704;28;20496;-52
2020/12/16 01:14:22;;;;;;;34.17;13.43;;;;;;;1.86;52.46;99672.41;10501627;28;20109;-50
2020/12/16 01:19:25;;;;;;;27.40;13.60;;;;;;;1.80;52.82;99679.56;10501875;28;20079;-52
2020/12/16 01:24:28;;;;;;;37.65;13.13;;;;;;;1.78;52.30;99678.78;10501290;28;20473;-52
2020/12/16 01:29:33;;;;;;;30.65;12.25;;;;;;;1.84;52.79;99675.88;10501864;28;20535;-50
2020/12/16 01:34:35;;;;;;;28.25;14.25;;;;;;;1.97;51.95;99681.31;10503204;28;20045;-52
2020/12/16 01:39:43;;;;;;;37.17;14.02;;;;;;;1.92;51.90;99679.88;10502321;28;20048;-51
2020/12/16 01:44:49;;;;;;;31.10;13.45;;;;;;;1.97;52.36;99689.09;10501493;28;20351;-52
2020/12/16 01:49:52;;;;;;;41.03;15.48;;;;;;;1.97;52.33;99675.28;10503703;28;20493;-51
2020/12/16 01:54:58;;;;;;;35.13;13.93;;;;;;;2.01;52.25;99671.63;10505293;28;20090;-51
2020/12/16 02:00:05;;;;;;;39.85;13.93;;;;;;;1.95;52.02;99677.94;10501025;28;20139;-51
2020/12/16 02:05:20;;;;;;;30.30;13.15;;;;;;;1.97;52.54;99693.41;10503383;28;20048;-52
2020/12/16 02:10:24;;;;;;;28.60;14.00;;;;;;;2.01;51.97;99685.44;10500156;28;20135;-51
2020/12/16 02:15:27;;;;;;;34.17;13.25;;;;;;;2.04;52.31;99687.03;10498908;28;20045;-51
2020/12/16 02:20:30;;;;;;;33.65;12.75;;;;;;;2.01;51.87;99689.78;10499600;28;20067;-52
2020/12/16 02:25:32;;;;;;;28.13;12.88;;;;;;;2.05;52.19;99688.69;10500067;28;20052;-51
2020/12/16 02:30:39;;;;;;;32.08;12.55;;;;;;;2.11;51.52;99690.97;10461745;28;20053;-53
2020/12/16 02:36:04;;;;;;;35.38;13.45;;;;;;;1.96;51.67;99692.59;10461649;28;20076;-52
2020/12/16 02:41:27;;;;;;;30.25;12.82;;;;;;;1.79;51.84;99683.06;10541927;28;20055;-51
2020/12/16 02:46:30;;;;;;;31.73;13.02;;;;;;;1.69;51.61;99676.63;10539968;28;20500;-51
2020/12/16 02:51:33;;;;;;;35.15;15.48;;;;;;;1.54;51.72;99667.03;10541190;28;20097;-51
2020/12/16 02:56:36;;;;;;;30.45;12.27;;;;;;;1.38;51.63;99672.94;10517339;28;20098;-51
2020/12/16 03:01:43;;;;;;;33.13;12.63;;;;;;;1.24;51.92;99677.13;10493327;28;20132;-50
2020/12/16 03:07:15;;;;;;;37.00;13.82;;;;;;;1.06;52.18;99671.88;10457911;28;20059;-57
2020/12/16 03:12:18;;;;;;;33.88;13.57;;;;;;;0.91;51.81;99672.59;10457033;28;20378;-50
2020/12/16 03:17:26;;;;;;;35.03;14.15;;;;;;;0.73;52.28;99669.09;10460881;28;20060;-50
2020/12/16 03:22:35;;;;;;;41.42;14.85;;;;;;;0.63;51.81;99662.66;10456174;28;20048;-51
2020/12/16 03:28:03;;;;;;;38.50;14.25;;;;;;;0.50;52.19;99662.38;10455666;28;20060;-50
2020/12/16 03:33:16;;;;;;;33.25;13.65;;;;;;;0.40;51.81;99666.25;10456161;28;20056;-50
2020/12/16 03:38:36;;;;;;;40.80;16.48;;;;;;;0.36;52.24;99672.47;10501622;28;20048;-51
2020/12/16 03:43:44;;;;;;;35.47;14.18;;;;;;;0.31;52.81;99674.41;10539576;28;20549;-50
2020/12/16 03:48:46;;;;;;;37.40;15.57;;;;;;;0.32;53.06;99668.34;10541958;28;20078;-52
2020/12/16 03:53:48;;;;;;;42.67;15.85;;;;;;;0.42;52.68;99675.63;10538195;28;20080;-50
2020/12/16 03:59:09;;;;;;;42.60;15.55;;;;;;;0.41;53.39;99676.56;10496288;28;20060;-51
2020/12/16 04:04:37;;;;;;;41.50;13.95;;;;;;;0.51;53.10;99678.72;10497614;28;20053;-52
2020/12/16 04:09:42;;;;;;;43.00;15.95;;;;;;;0.63;53.31;99678.19;10496332;28;20135;-50
2020/12/16 04:14:45;;;;;;;46.78;16.30;;;;;;;0.66;53.58;99688.41;10496907;28;20052;-52
2020/12/16 04:19:51;;;;;;;44.92;16.48;;;;;;;0.65;52.99;99691.91;10496186;28;20059;-50
2020/12/16 04:24:53;;;;;;;43.85;15.98;;;;;;;0.60;53.10;99699.03;10496210;28;20136;-51
2020/12/16 04:30:04;;;;;;;44.25;15.77;;;;;;;0.53;53.82;99708.81;10495998;28;20059;-54
2020/12/16 04:35:10;;;;;;;38.95;15.45;;;;;;;0.55;53.85;99706.97;10497245;28;20040;-50
2020/12/16 04:40:14;;;;;;;50.83;18.42;;;;;;;0.64;53.42;99708.31;10536848;28;20389;-50
2020/12/16 04:45:17;;;;;;;45.85;17.40;;;;;;;0.68;53.29;99704.69;10545295;28;20545;-51
2020/12/16 04:50:20;;;;;;;44.10;17.17;;;;;;;0.77;53.25;99712.06;10548757;28;20396;-54
2020/12/16 04:55:28;;;;;;;50.30;17.67;;;;;;;0.83;53.73;99727.31;10526763;28;20056;-52
2020/12/16 05:00:51;;;;;;;44.42;15.75;;;;;;;0.83;53.27;99726.44;10504364;28;20429;-51
2020/12/16 05:06:10;;;;;;;51.75;16.33;;;;;;;0.81;53.29;99726.53;10505446;28;20472;-52
2020/12/16 05:11:12;;;;;;;44.83;15.38;;;;;;;0.72;53.63;99731.28;10505392;28;20087;-52
2020/12/16 05:16:15;;;;;;;36.20;16.77;;;;;;;0.82;53.36;99735.13;10503641;28;20040;-51
2020/12/16 05:21:17;;;;;;;39.65;15.20;;;;;;;0.82;53.53;99735.97;10504247;28;20075;-51
2020/12/16 05:26:19;;;;;;;35.65;14.95;;;;;;;0.85;53.19;99735.00;10503093;28;20500;-51
2020/12/16 05:31:28;;;;;;;37.22;15.70;;;;;;;0.83;53.15;99727.31;10503412;28;20104;-50
2020/12/16 05:36:32;;;;;;;38.97;15.20;;;;;;;0.79;53.36;99732.66;10507558;28;20131;-51
2020/12/16 05:41:34;;;;;;;29.65;12.60;;;;;;;0.72;53.69;99728.69;10545337;28;20044;-52
2020/12/16 05:46:36;;;;;;;27.58;13.48;;;;;;;0.65;53.51;99728.13;10547844;28;20092;-51
2020/12/16 05:51:38;;;;;;;32.58;14.05;;;;;;;0.67;53.56;99732.28;10546920;28;20052;-51
2020/12/16 05:56:40;;;;;;;38.72;13.75;;;;;;;0.50;53.81;99737.38;10520435;28;20060;-51
2020/12/16 06:01:44;;;;;;;31.40;12.88;;;;;;;0.45;53.34;99737.56;10490696;28;20061;-51
2020/12/16 06:06:46;;;;;;;34.72;12.63;;;;;;;0.34;53.88;99742.38;10459994;28;20044;-51
2020/12/16 06:11:54;;;;;;;31.45;12.10;;;;;;;0.39;53.33;99737.84;10459845;28;20048;-51
2020/12/16 06:17:10;;;;;;;29.63;12.75;;;;;;;0.38;53.84;99749.09;10458679;28;20378;-51
2020/12/16 06:22:12;;;;;;;30.83;11.02;;;;;;;0.33;53.43;99743.25;10462221;28;20048;-56
2020/12/16 06:27:16;;;;;;;27.20;9.88;;;;;;;0.32;53.73;99744.19;10463314;28;20082;-51
2020/12/16 06:32:24;;;;;;;32.08;11.98;;;;;;;0.24;53.82;99743.66;10457688;28;20053;-51
2020/12/16 06:37:26;;;;;;;29.15;11.55;;;;;;;0.32;54.05;99754.53;10483176;28;20132;-51
2020/12/16 06:42:33;;;;;;;28.23;10.95;;;;;;;0.37;53.51;99765.53;10543859;28;20050;-52
2020/12/16 06:47:35;;;;;;;26.20;10.45;;;;;;;0.22;54.08;99756.66;10521518;28;20051;-50
2020/12/16 06:52:37;;;;;;;33.42;10.85;;;;;;;0.38;53.93;99761.19;10458405;28;20048;-51
2020/12/16 06:57:49;;;;;;;24.83;11.02;;;;;;;0.50;53.46;99768.44;10492534;28;20428;-52
2020/12/16 07:02:52;;;;;;;32.92;11.57;;;;;;;0.44;54.05;99769.53;10497270;28;20052;-52
2020/12/16 07:07:56;;;;;;;29.80;12.05;;;;;;;0.46;53.88;99769.44;10501657;28;20378;-52
2020/12/16 07:13:09;;;;;;;;;;;;;;;0.54;54.19;99775.13;10501802;28;20484;-52
2020/12/16 07:18:28;;;;;;;25.45;11.45;;;;;;;0.79;53.48;99769.72;10499264;28;19934;-52
2020/12/16 07:23:38;;;;;;;32.13;12.68;;;;;;;0.76;53.70;99769.88;10498955;28;20473;-51
2020/12/16 07:28:40;;;;;;;26.50;10.00;;;;;;;0.76;53.42;99767.28;10491761;28;20389;-51
2020/12/16 07:33:43;;;;;;;32.67;12.88;;;;;;;0.97;53.60;99769.84;10458443;28;20060;-50
2020/12/16 07:38:52;;;;;;;31.60;12.02;;;;;;;1.00;53.17;99770.53;10484031;28;20137;-52
2020/12/16 07:43:55;;;;;;;22.15;9.48;;;;;;;0.96;53.19;99773.34;10457814;28;20045;-52
2020/12/16 07:48:58;;;;;;;28.30;10.52;;;;;;;0.83;54.17;99773.03;10456649;28;20140;-51
2020/12/16 07:54:00;;;;;;;29.88;11.02;;;;;;;0.74;54.05;99774.28;10464516;28;20070;-52
2020/12/16 07:59:12;;;;;;;23.50;10.73;;;;;;;0.75;54.00;99770.78;10498089;28;20064;-52
2020/12/16 08:04:16;;;;;;;22.40;8.02;;;;;;;0.92;53.56;99767.44;10491992;28;20495;-54
2020/12/16 08:09:21;;;;;;;22.90;9.65;;;;;;;0.78;53.63;99760.31;10456480;28;20045;-54
2020/12/16 08:14:22;;;;;;;21.27;8.65;;;;;;;0.88;53.73;99750.38;10459662;28;20140;-56
2020/12/16 08:19:25;;;;;;;19.17;6.78;;;;;;;1.01;53.99;99750.66;10465054;28;20106;-55
2020/12/16 08:24:26;;;;;;;18.02;6.85;;;;;;;1.13;53.59;99750.09;10465563;28;20045;-56
2020/12/16 08:29:29;;;;;;;17.48;6.93;;;;;;;1.29;53.59;99740.75;10464551;28;20478;-56
2020/12/16 08:34:34;;;;;;;18.67;7.00;;;;;;;1.36;53.90;99731.78;10462996;28;20049;-55
2020/12/16 08:39:36;;;;;;;17.70;6.15;;;;;;;1.37;53.94;99730.00;10506941;28;20458;-55
2020/12/16 08:44:38;;;;;;;15.05;6.38;;;;;;;1.49;54.08;99734.63;10463801;28;20148;-53
2020/12/16 08:49:41;;;;;;;15.88;6.32;;;;;;;1.71;53.49;99737.00;10461540;28;20059;-54
2020/12/16 08:54:44;;;;;;;16.50;6.97;;;;;;;1.83;53.24;99733.84;10473570;28;20048;-53
2020/12/16 08:59:46;;;;;;;;;;;;;;;1.94;53.49;99732.47;10504290;28;20121;-53
2020/12/16 09:04:57;;;;;;;18.20;6.13;;;;;;;1.88;53.29;99722.38;10503757;28;19932;-53
2020/12/16 09:09:58;;;;;;;11.63;5.85;;;;;;;1.74;54.09;99715.31;10505679;28;20056;-54
2020/12/16 09:15:03;;;;;;;12.15;4.63;;;;;;;1.75;54.15;99714.38;10504051;28;20075;-52
2020/12/16 09:20:12;;;;;;;14.57;5.50;;;;;;;1.75;54.13;99717.81;10506958;28;20078;-55
2020/12/16 09:25:16;;;;;;;10.88;4.78;;;;;;;1.75;54.41;99723.00;10503064;28;20044;-54
2020/12/16 09:30:25;;;;;;;10.20;4.78;;;;;;;2.01;53.54;99711.34;10503368;28;20055;-55
2020/12/16 09:35:28;;;;;;;9.35;4.35;;;;;;;1.94;54.20;99697.03;10502153;28;20048;-55
2020/12/16 09:40:31;;;;;;;12.18;5.05;;;;;;;2.03;54.06;99691.38;10502163;28;20049;-53
2020/12/16 09:45:33;;;;;;;13.80;4.78;;;;;;;1.92;54.11;99687.66;10502633;28;20110;-59
2020/12/16 09:50:37;;;;;;;13.15;4.78;;;;;;;1.72;54.38;99683.44;10502611;28;20473;-54
2020/12/16 09:55:41;;;;;;;12.85;5.43;;;;;;;1.72;54.44;99689.44;10502230;28;20067;-53
2020/12/16 10:00:43;;;;;;;9.55;4.07;;;;;;;1.83;54.20;99694.94;10499998;28;20048;-60
2020/12/16 10:05:46;;;;;;;12.32;5.50;;;;;;;1.86;54.41;99682.75;10501045;28;20075;-52
2020/12/16 10:10:48;;;;;;;14.50;5.73;;;;;;;1.84;54.56;99678.47;10498538;28;20245;-54
2020/12/16 10:15:49;;;;;;;16.45;5.18;;;;;;;2.01;54.35;99679.41;10498508;28;20052;-53
2020/12/16 10:20:52;;;;;;;13.00;4.75;;;;;;;1.95;54.28;99666.75;10496146;28;20048;-53
2020/12/16 10:25:54;;;;;;;13.88;5.68;;;;;;;1.90;54.71;99642.81;10494131;28;20094;-53
2020/12/16 10:30:55;;;;;;;10.95;4.55;;;;;;;1.97;54.87;99645.03;10495433;28;20048;-54
2020/12/16 10:35:58;;;;;;;12.70;5.57;;;;;;;1.82;55.05;99623.31;10495538;28;20048;-53
2020/12/16 10:41:00;;;;;;;12.93;5.07;;;;;;;1.80;55.21;99635.50;10498444;28;20056;-54
2020/12/16 10:46:01;;;;;;;14.88;5.43;;;;;;;1.77;55.71;99620.09;10500285;28;20048;-54
2020/12/16 10:51:04;;;;;;;12.27;5.53;;;;;;;1.87;55.46;99623.06;10496681;28;20071;-54
2020/12/16 10:56:05;;;;;;;12.88;5.38;;;;;;;1.92;54.86;99621.06;10496178;28;20489;-53
2020/12/16 11:01:08;;;;;;;14.57;4.68;;;;;;;1.80;55.29;99632.91;10495726;28;20048;-53
2020/12/16 11:06:12;;;;;;;14.57;5.57;;;;;;;1.78;55.33;99637.31;10495899;28;20062;-54
2020/12/16 11:11:14;;;;;;;13.32;3.15;;;;;;;1.74;55.96;99622.00;10495836;28;20078;-53
2020/12/16 11:16:16;;;;;;;11.75;4.80;;;;;;;1.67;55.77;99618.88;10496520;28;20055;-54
2020/12/16 11:21:18;;;;;;;11.32;4.65;;;;;;;1.65;55.94;99617.28;10496215;28;20137;-53
2020/12/16 11:26:20;;;;;;;11.63;5.15;;;;;;;1.59;56.40;99605.47;10495453;28;20056;-53
2020/12/16 11:31:22;;;;;;;12.65;5.68;;;;;;;1.62;56.79;99623.44;10495610;28;20056;-55
2020/12/16 11:36:24;;;;;;;14.98;4.88;;;;;;;1.71;56.44;99625.59;10501031;28;20076;-53
2020/12/16 11:41:26;;;;;;;14.73;5.72;;;;;;;1.58;56.89;99619.34;10497594;28;20052;-55
2020/12/16 11:46:29;;;;;;;14.45;5.35;;;;;;;1.60;56.33;99633.03;10492101;28;20102;-54
2020/12/16 11:51:31;;;;;;;14.30;5.55;;;;;;;1.73;56.75;99618.56;10493993;28;20057;-56
2020/12/16 11:56:33;;;;;;;15.15;6.60;;;;;;;1.93;55.73;99616.72;10493693;28;20114;-58
2020/12/16 12:01:38;;;;;;;16.67;5.80;;;;;;;1.86;56.58;99598.06;10495335;28;20106;-54
2020/12/16 12:06:39;;;;;;;14.30;5.60;;;;;;;1.79;56.49;99601.88;10492035;28;20049;-55
2020/12/16 12:11:41;;;;;;;18.63;6.15;;;;;;;1.78;56.46;99598.44;10496401;28;20068;-54
2020/12/16 12:16:44;;;;;;;13.77;5.78;;;;;;;1.76;56.65;99600.28;10493409;28;20087;-56
2020/12/16 12:21:46;;;;;;;11.32;4.07;;;;;;;1.79;56.63;99607.91;10494413;28;20121;-55
2020/12/16 12:26:50;;;;;;;15.95;6.35;;;;;;;1.75;56.41;99596.00;10494177;28;20488;-54
2020/12/16 12:31:52;;;;;;;;;;;;;;;1.77;56.93;99596.75;10496838;28;20143;-56
2020/12/16 12:36:54;;;;;;;14.48;5.43;;;;;;;1.71;56.91;99597.06;10498112;28;20245;-56
2020/12/16 12:41:56;;;;;;;14.02;5.63;;;;;;;1.68;56.83;99602.41;10495951;28;20049;-55
2020/12/16 12:47:17;;;;;;;15.80;6.25;;;;;;;1.59;57.24;99602.88;10483252;28;20485;-57
2020/12/16 12:52:27;;;;;;;14.52;5.05;;;;;;;1.60;57.02;99614.91;10457878;28;20106;-58
2020/12/16 12:57:29;;;;;;;18.05;5.35;;;;;;;1.56;57.09;99601.25;10458917;28;20061;-59
2020/12/16 13:02:32;;;;;;;12.82;5.78;;;;;;;1.38;57.84;99582.28;10499885;28;20113;-57
2020/12/16 13:07:34;;;;;;;13.83;5.53;;;;;;;1.47;57.63;99593.94;10503753;28;20412;-54
2020/12/16 13:12:36;;;;;;;14.05;6.18;;;;;;;1.56;57.91;99592.66;10503540;28;20841;-56
2020/12/16 13:17:38;;;;;;;18.80;7.53;;;;;;;1.65;57.88;99597.38;10506661;28;20134;-56
2020/12/16 13:22:40;;;;;;;19.33;6.82;;;;;;;1.76;57.26;99581.31;10499727;28;20134;-54
2020/12/16 13:27:41;;;;;;;19.75;6.03;;;;;;;1.70;57.36;99569.50;10500384;28;20139;-54
2020/12/16 13:32:44;;;;;;;18.40;6.75;;;;;;;1.62;57.54;99561.25;10503281;28;20091;-54
2020/12/16 13:37:45;;;;;;;16.77;6.93;;;;;;;1.57;57.59;99542.50;10519686;28;20431;-54
2020/12/16 13:42:49;;;;;;;16.17;6.40;;;;;;;1.46;58.30;99560.38;10540829;28;20055;-53
2020/12/16 13:47:52;;;;;;;15.32;6.70;;;;;;;1.54;58.07;99555.63;10544151;28;20055;-53
2020/12/16 13:52:56;;;;;;;23.08;7.85;;;;;;;1.52;58.19;99554.88;10542298;28;20135;-55
2020/12/16 13:57:58;;;;;;;21.30;7.10;;;;;;;1.49;58.48;99553.28;10542287;28;20055;-55
2020/12/16 14:03:00;;;;;;;17.05;6.88;;;;;;;1.55;58.47;99544.34;10543562;28;20433;-55
2020/12/16 14:08:02;;;;;;;21.67;6.28;;;;;;;1.51;58.53;99533.31;10473642;28;20550;-57
2020/12/16 14:13:04;;;;;;;14.77;5.75;;;;;;;1.45;58.76;99540.53;10459982;28;20048;-53
2020/12/16 14:18:06;;;;;;;12.50;3.97;;;;;;;1.47;58.67;99530.94;10459328;28;20457;-54
2020/12/16 14:23:08;;;;;;;19.48;6.57;;;;;;;1.34;59.65;99525.56;10461053;28;20065;-54
2020/12/16 14:28:09;;;;;;;15.60;6.65;;;;;;;1.52;58.71;99519.44;10460479;28;20104;-55
2020/12/16 14:33:12;;;;;;;17.23;5.07;;;;;;;1.48;59.05;99515.34;10469557;28;20041;-54
2020/12/16 14:38:13;;;;;;;19.90;8.13;;;;;;;1.42;59.30;99515.66;10498939;28;20127;-54
2020/12/16 14:43:15;;;;;;;19.48;6.63;;;;;;;1.47;59.08;99516.25;10499425;28;20370;-54
2020/12/16 14:48:18;;;;;;;15.10;5.97;;;;;;;1.57;59.33;99506.25;10496394;28;20056;-54
2020/12/16 14:53:19;;;;;;;13.15;5.40;;;;;;;1.55;59.50;99487.38;10498555;28;20131;-55
2020/12/16 14:58:21;;;;;;;17.90;5.30;;;;;;;1.58;59.05;99484.63;10499239;28;20060;-55
2020/12/16 15:03:23;;;;;;;20.02;4.85;;;;;;;1.60;59.06;99487.94;10499147;28;20151;-53
2020/12/16 15:08:25;;;;;;;19.35;7.18;;;;;;;1.60;59.36;99494.00;10499328;28;20614;-54
2020/12/16 15:13:26;;;;;;;11.25;4.93;;;;;;;1.61;59.70;99492.22;10486928;28;20128;-53
2020/12/16 15:18:28;;;;;;;16.48;5.95;;;;;;;1.55;59.95;99485.59;10497411;28;20102;-57
2020/12/16 15:23:30;;;;;;;19.63;6.40;;;;;;;1.60;59.75;99477.56;10497819;28;20072;-54
2020/12/16 15:28:32;;;;;;;12.95;5.32;;;;;;;1.65;59.32;99470.41;10497386;28;20074;-54
2020/12/16 15:33:34;;;;;;;18.90;7.40;;;;;;;1.59;59.42;99475.91;10498288;28;20076;-54
2020/12/16 15:38:36;;;;;;;12.07;5.93;;;;;;;1.55;59.45;99466.63;10497446;28;20045;-55
2020/12/16 15:43:38;;;;;;;13.40;6.43;;;;;;;1.56;60.28;99468.31;10498236;28;20049;-53
2020/12/16 15:48:41;;;;;;;15.18;7.18;;;;;;;1.64;59.50;99468.75;10495475;28;20053;-61
2020/12/16 15:53:43;;;;;;;;;;;;;;;1.73;59.87;99460.50;10498574;28;20044;-55
2020/12/16 15:58:44;;;;;;;9.15;4.22;;;;;;;1.79;59.21;99460.16;10498235;28;19985;-54
2020/12/16 16:03:47;;;;;;;16.23;6.70;;;;;;;1.68;59.66;99436.56;10496501;28;20407;-54
2020/12/16 16:08:49;;;;;;;13.25;6.72;;;;;;;1.64;60.10;99435.06;10464651;28;20056;-55
2020/12/16 16:13:50;;;;;;;21.52;7.13;;;;;;;1.73;59.75;99433.75;10457047;28;20037;-55
2020/12/16 16:18:53;;;;;;;21.23;7.70;;;;;;;1.74;59.83;99427.63;10456427;28;20049;-55
2020/12/16 16:23:54;;;;;;;11.35;5.68;;;;;;;1.69;59.72;99422.69;10455676;28;20072;-53
2020/12/16 16:28:56;;;;;;;15.68;6.60;;;;;;;1.81;60.25;99401.28;10456266;28;20083;-57
2020/12/16 16:33:58;;;;;;;15.68;6.40;;;;;;;1.77;59.98;99381.66;10474517;28;20049;-55
2020/12/16 16:39:00;;;;;;;11.82;5.60;;;;;;;1.73;60.07;99389.69;10506629;28;20110;-54
2020/12/16 16:44:02;;;;;;;13.55;5.72;;;;;;;1.77;59.80;99386.00;10506298;28;20045;-54
2020/12/16 16:49:05;;;;;;;13.93;6.47;;;;;;;1.77;60.37;99379.06;10505464;28;20078;-55
2020/12/16 16:54:06;;;;;;;10.52;5.15;;;;;;;1.78;60.33;99383.31;10503625;28;20044;-54
2020/12/16 16:59:08;;;;;;;12.15;6.30;;;;;;;1.82;59.81;99371.06;10504086;28;20139;-55
2020/12/16 17:04:14;;;;;;;6.43;2.40;;;;;;;1.89;59.75;99369.78;10504530;28;20041;-54
2020/12/16 17:09:15;;;;;;;10.98;5.50;;;;;;;1.90;59.92;99368.03;10503557;28;20132;-55
2020/12/16 17:14:32;;;;;;;11.82;5.40;;;;;;;1.93;59.69;99370.44;10470490;28;20056;-54
2020/12/16 17:19:36;;;;;;;10.68;3.88;;;;;;;1.92;59.99;99371.38;10500928;28;20086;-55
2020/12/16 17:24:37;;;;;;;;;;;;;;;1.94;59.82;99369.53;10503231;28;20139;-54
2020/12/16 17:29:39;;;;;;;10.65;4.88;;;;;;;1.84;59.92;99367.44;10502509;28;19924;-54
2020/12/16 17:34:41;;;;;;;11.02;5.00;;;;;;;1.83;59.93;99360.59;10502397;28;20102;-54
2020/12/16 17:39:43;;;;;;;8.93;4.88;;;;;;;1.85;60.23;99360.53;10498351;28;20052;-53
2020/12/16 17:44:44;;;;;;;11.48;5.13;;;;;;;1.83;60.12;99352.81;10461391;28;20060;-54
2020/12/16 17:49:47;;;;;;;11.07;5.15;;;;;;;1.85;60.29;99344.97;10460785;28;20045;-56
2020/12/16 17:54:49;;;;;;;10.80;4.78;;;;;;;1.89;60.19;99336.09;10459724;28;20497;-56
2020/12/16 17:59:50;;;;;;;11.10;5.68;;;;;;;1.97;59.65;99330.47;10461139;28;20049;-54
2020/12/16 18:04:53;;;;;;;10.57;4.82;;;;;;;1.88;60.14;99315.44;10462163;28;20061;-56
2020/12/16 18:09:54;;;;;;;4.90;1.75;;;;;;;1.82;60.37;99283.78;10462023;28;20045;-54
2020/12/16 18:14:56;;;;;;;10.50;5.18;;;;;;;1.75;60.56;99300.56;10458619;28;20152;-54
2020/12/16 18:19:58;;;;;;;7.88;3.53;;;;;;;1.77;59.94;99316.88;10459256;28;20049;-55
2020/12/16 18:25:00;;;;;;;8.48;4.05;;;;;;;1.78;60.58;99330.66;10459365;28;20178;-55
2020/12/16 18:30:02;;;;;;;11.70;4.75;;;;;;;1.84;60.42;99332.91;10460212;28;20049;-58
2020/12/16 18:35:05;;;;;;;9.45;5.18;;;;;;;1.83;60.26;99332.06;10478192;28;20389;-54
2020/12/16 18:40:08;;;;;;;9.93;3.75;;;;;;;1.90;60.13;99326.56;10498655;28;20048;-53
2020/12/16 18:45:09;;;;;;;10.17;5.27;;;;;;;1.86;60.08;99317.28;10497065;28;20052;-54
2020/12/16 18:50:13;;;;;;;9.27;3.92;;;;;;;1.82;60.63;99311.44;10496524;28;20146;-54
2020/12/16 18:55:15;;;;;;;7.70;3.60;;;;;;;1.83;59.93;99311.34;10495308;28;20437;-55
2020/12/16 19:00:17;;;;;;;9.32;4.07;;;;;;;1.89;60.21;99309.34;10495509;28;20048;-53
2020/12/16 19:05:20;;;;;;;9.98;4.65;;;;;;;1.93;60.20;99292.69;10495752;28;20084;-54
2020/12/16 19:10:22;;;;;;;8.77;4.32;;;;;;;1.85;59.85;99282.75;10492615;28;20131;-53
2020/12/16 19:15:24;;;;;;;10.07;4.72;;;;;;;1.78;60.42;99282.25;10496113;28;20469;-53
2020/12/16 19:20:26;;;;;;;7.78;3.20;;;;;;;1.80;60.50;99285.59;10493460;28;20063;-54
2020/12/16 19:25:28;;;;;;;10.45;4.60;;;;;;;1.80;60.58;99280.41;10495375;28;20063;-53
2020/12/16 19:30:30;;;;;;;11.38;5.80;;;;;;;1.82;60.35;99288.13;10494514;28;20155;-55
2020/12/16 19:35:33;;;;;;;13.32;5.55;;;;;;;1.95;60.47;99278.72;10494407;28;20524;-55
2020/12/16 19:40:35;;;;;;;13.55;6.35;;;;;;;1.87;60.24;99273.13;10496572;28;20114;-54
2020/12/16 19:45:37;;;;;;;10.80;5.10;;;;;;;1.97;60.34;99281.22;10493943;28;20428;-53
2020/12/16 19:50:39;;;;;;;10.40;5.10;;;;;;;2.05;59.64;99279.03;10494809;28;20195;-54
2020/12/16 19:55:41;;;;;;;10.90;5.25;;;;;;;2.01;59.94;99272.38;10494849;28;20519;-54
2020/12/16 20:00:43;;;;;;;16.15;7.00;;;;;;;1.93;60.31;99269.34;10495827;28;20090;-54
2020/12/16 20:05:45;;;;;;;15.23;5.90;;;;;;;1.86;60.50;99276.66;10494173;28;20487;-53
2020/12/16 20:10:47;;;;;;;14.05;5.28;;;;;;;1.93;60.47;99280.56;10500244;28;20147;-54
2020/12/16 20:15:49;;;;;;;14.65;5.68;;;;;;;1.98;60.03;99282.91;10503398;28;20139;-53
2020/12/16 20:20:52;;;;;;;14.57;7.18;;;;;;;1.98;60.21;99270.78;10502013;28;20081;-54
2020/12/16 20:25:53;;;;;;;16.33;7.18;;;;;;;2.06;60.41;99280.69;10502188;28;20067;-53
2020/12/16 20:30:55;;;;;;;15.25;7.75;;;;;;;1.99;60.60;99279.38;10501994;28;20125;-53
2020/12/16 20:35:57;;;;;;;14.55;6.40;;;;;;;1.99;60.69;99274.19;10502453;28;20051;-56
2020/12/16 20:40:59;;;;;;;10.32;4.30;;;;;;;2.04;60.77;99272.19;10501494;28;20087;-54
2020/12/16 20:46:01;;;;;;;20.33;8.38;;;;;;;2.03;60.45;99257.53;10504827;28;20098;-55
2020/12/16 20:51:03;;;;;;;20.25;8.20;;;;;;;2.14;60.27;99256.94;10502137;28;20500;-54
2020/12/16 20:56:05;;;;;;;15.52;6.05;;;;;;;2.11;60.63;99262.28;10501328;28;20058;-53
2020/12/16 21:01:07;;;;;;;19.92;7.57;;;;;;;2.02;60.39;99246.34;10501647;28;20476;-54
2020/12/16 21:06:10;;;;;;;15.23;5.97;;;;;;;2.05;60.92;99240.13;10500819;28;20037;-55
2020/12/16 21:11:12;;;;;;;18.02;7.15;;;;;;;2.07;60.63;99241.72;10503687;28;20162;-54
2020/12/16 21:16:14;;;;;;;18.80;7.47;;;;;;;2.06;60.96;99228.84;10501779;28;20709;-52
2020/12/16 21:21:17;;;;;;;15.93;7.85;;;;;;;2.11;60.46;99236.38;10499408;28;20053;-54
2020/12/16 21:26:18;;;;;;;22.50;8.98;;;;;;;2.12;60.52;99228.47;10501298;28;20511;-57
2020/12/16 21:31:24;;;;;;;17.55;8.13;;;;;;;2.18;60.60;99198.78;10499444;28;20060;-54
2020/12/16 21:36:33;;;;;;;17.55;7.90;;;;;;;2.20;60.51;99202.94;10501630;28;20492;-55
2020/12/16 21:41:35;;;;;;;19.42;8.60;;;;;;;2.25;60.38;99208.72;10499538;28;20084;-53
2020/12/16 21:46:37;;;;;;;14.30;6.80;;;;;;;2.26;60.06;99204.34;10499153;28;20052;-54
2020/12/16 21:51:40;;;;;;;16.98;7.93;;;;;;;2.25;60.39;99207.88;10498427;28;20054;-53
2020/12/16 21:56:47;;;;;;;15.52;6.70;;;;;;;2.24;59.87;99212.22;10501900;28;20101;-53
2020/12/16 22:01:49;;;;;;;15.70;6.60;;;;;;;2.27;60.17;99185.25;10500795;28;21112;-55
2020/12/16 22:06:53;;;;;;;16.52;6.20;;;;;;;2.34;60.02;99193.50;10496794;28;20052;-53
2020/12/16 22:11:58;;;;;;;13.95;6.25;;;;;;;2.28;60.17;99187.78;10498522;28;20125;-53
2020/12/16 22:17:02;;;;;;;15.00;6.95;;;;;;;2.27;59.72;99195.63;10498512;28;20131;-54
2020/12/16 22:22:05;;;;;;;17.60;7.75;;;;;;;2.19;59.77;99197.88;10497924;28;20055;-55
2020/12/16 22:27:06;;;;;;;19.40;7.27;;;;;;;2.27;60.16;99199.06;10497368;28;20059;-53
2020/12/16 22:32:27;;;;;;;17.92;7.45;;;;;;;2.41;59.75;99182.69;10499444;28;20786;-55
2020/12/16 22:37:29;;;;;;;20.08;8.15;;;;;;;2.45;59.75;99178.16;10504475;28;20044;-55
2020/12/16 22:42:31;;;;;;;15.07;7.30;;;;;;;2.40;59.09;99172.38;10501493;28;20051;-55
2020/12/16 22:47:33;;;;;;;17.00;6.43;;;;;;;2.33;59.81;99182.31;10500210;28;20461;-55
2020/12/16 22:52:35;;;;;;;18.33;7.40;;;;;;;2.32;59.83;99185.84;10499968;28;20197;-53
2020/12/16 22:57:37;;;;;;;16.73;7.03;;;;;;;2.33;59.84;99178.88;10499034;28;20053;-56
2020/12/16 23:02:38;;;;;;;16.80;6.15;;;;;;;2.36;59.49;99178.69;10499352;28;20040;-54
2020/12/16 23:07:41;;;;;;;16.95;6.70;;;;;;;2.37;59.61;99177.75;10498463;28;20053;-54
2020/12/16 23:12:45;;;;;;;17.08;8.07;;;;;;;2.40;59.91;99165.47;10498874;28;20106;-54
2020/12/16 23:17:46;;;;;;;17.40;7.63;;;;;;;2.39;59.67;99160.34;10498528;28;20059;-53
2020/12/16 23:22:51;;;;;;;14.27;7.15;;;;;;;2.47;59.60;99173.72;10498375;28;20048;-55
2020/12/16 23:27:52;;;;;;;12.25;6.68;;;;;;;2.53;59.49;99163.78;10498708;28;20052;-54
2020/12/16 23:32:55;;;;;;;13.73;6.05;;;;;;;2.44;59.70;99166.94;10498958;28;20059;-55